Time;durP1;ratioP1;P1;durP2;ratioP2;P2;SDS_P1;SDS_P2;PMS_P1;PMS_P2;Temp;Humidity;BMP_temperature;BMP_pressure;BME280_temperature;BME280_humidity;BME280_pressure;Samples;Min_cycle;Max_cycle;Signal;HPM_P1;HPM_P2
2022/09/14 04:49:48;;;;;;;42.43;39.60;;;18.70;99.90;;;;;;6072314;23;20431;31
2022/09/14 04:52:16;;;;;;;42.13;39.07;;;18.60;99.90;;;;;;4928768;29;20481;-72
2022/09/14 04:54:42;;;;;;;40.23;37.70;;;18.60;99.90;;;;;;4932021;29;20463;-74
2022/09/14 04:57:09;;;;;;;39.73;37.33;;;;;;;;;;4931761;29;20472;-72
2022/09/14 04:59:36;;;;;;;37.57;35.37;;;18.60;99.90;;;;;;4932184;29;20457;-72
2022/09/14 05:02:03;;;;;;;40.07;36.90;;;18.50;99.90;;;;;;4932391;29;20870;-73
2022/09/14 05:04:30;;;;;;;38.00;35.70;;;18.60;99.90;;;;;;4932467;29;20464;-73
2022/09/14 05:06:56;;;;;;;36.13;33.87;;;18.60;99.90;;;;;;4932304;29;20954;-72
2022/09/14 05:09:24;;;;;;;37.50;35.20;;;18.80;99.90;;;;;;4932111;29;20851;-72
2022/09/14 05:11:51;;;;;;;36.57;33.80;;;18.60;99.90;;;;;;4932128;29;20461;-73
2022/09/14 05:14:18;;;;;;;34.83;32.83;;;18.70;99.90;;;;;;4932234;29;20465;-74
2022/09/14 05:16:46;;;;;;;33.03;30.83;;;18.60;99.90;;;;;;4930643;29;20458;-74
2022/09/14 05:19:17;;;;;;;30.70;28.90;;;18.60;99.90;;;;;;4931842;29;20493;-74
2022/09/14 05:21:44;;;;;;;28.90;27.30;;;22.20;99.90;;;;;;4932281;29;20457;-74
2022/09/14 05:24:13;;;;;;;30.20;28.27;;;18.70;99.90;;;;;;4932000;29;20457;-73
2022/09/14 05:26:42;;;;;;;27.90;26.40;;;18.80;99.90;;;;;;4932123;29;20462;-74
2022/09/14 05:29:12;;;;;;;28.07;26.53;;;18.80;99.90;;;;;;4931973;29;20454;-74
2022/09/14 05:31:39;;;;;;;25.80;24.40;;;18.90;99.90;;;;;;4931989;29;20453;-74
2022/09/14 05:34:05;;;;;;;26.80;25.13;;;18.90;99.90;;;;;;4931883;29;20457;-74
2022/09/14 05:36:32;;;;;;;26.37;24.77;;;19.10;99.90;;;;;;4932160;29;20943;-74
2022/09/14 05:38:59;;;;;;;25.90;24.40;;;19.20;99.90;;;;;;4932143;29;20485;-74
2022/09/14 05:41:26;;;;;;;26.00;24.60;;;19.30;99.90;;;;;;4931793;29;20460;-73
2022/09/14 05:43:54;;;;;;;25.87;24.23;;;19.30;99.90;;;;;;4931743;29;21002;-75
2022/09/14 05:46:21;;;;;;;23.77;22.47;;;19.40;99.90;;;;;;4931835;29;20485;-75
2022/09/14 05:48:50;;;;;;;23.70;22.30;;;19.50;99.90;;;;;;4931948;29;21054;-73
2022/09/14 05:51:18;;;;;;;25.00;23.20;;;19.60;99.90;;;;;;4946093;28;20520;-73
2022/09/14 05:53:48;;;;;;;25.50;24.10;;;19.70;99.90;;;;;;4951377;28;20460;-74
2022/09/14 05:56:15;;;;;;;25.40;23.90;;;19.80;99.90;;;;;;4951164;28;20460;-72
2022/09/14 05:58:42;;;;;;;25.50;24.10;;;19.80;99.90;;;;;;4950851;28;20491;-72
2022/09/14 06:01:13;;;;;;;24.67;23.13;;;20.00;99.90;;;;;;4950791;29;20499;-72
2022/09/14 06:03:40;;;;;;;24.80;23.40;;;;;;;;;;4950945;28;20460;-73
2022/09/14 06:06:08;;;;;;;24.90;23.60;;;20.10;99.90;;;;;;4953631;28;20780;-73
2022/09/14 06:08:35;;;;;;;25.90;24.10;;;20.20;99.90;;;;;;4954307;28;20852;-73
2022/09/14 06:11:06;;;;;;;25.13;23.33;;;20.10;99.90;;;;;;4954452;28;20456;-72
2022/09/14 06:13:57;;;;;;;23.17;21.77;;;20.30;99.90;;;;;;4954217;28;20480;-71
2022/09/14 06:16:27;;;;;;;23.43;22.10;;;20.40;99.90;;;;;;4940082;28;20456;-71
2022/09/14 06:18:55;;;;;;;24.53;23.10;;;20.50;99.90;;;;;;4953693;28;20775;-72
2022/09/14 06:21:22;;;;;;;24.50;22.90;;;20.80;99.90;;;;;;4953861;28;20461;-70
2022/09/14 06:23:50;;;;;;;24.97;23.50;;;20.80;99.90;;;;;;4953699;28;20456;-71
2022/09/14 06:26:17;;;;;;;24.80;23.30;;;20.90;99.90;;;;;;4953877;28;20979;-71
2022/09/14 06:28:44;;;;;;;24.43;22.87;;;20.90;99.90;;;;;;4953916;28;20445;-71
2022/09/14 06:31:13;;;;;;;24.70;22.90;;;20.90;99.90;;;;;;4953609;28;20460;-73
2022/09/14 06:33:45;;;;;;;23.70;22.40;;;20.80;99.90;;;;;;4953381;28;20460;-72
2022/09/14 06:36:13;;;;;;;25.80;24.30;;;20.90;99.90;;;;;;4953479;28;20456;-72
2022/09/14 06:38:41;;;;;;;24.63;23.03;;;21.00;99.90;;;;;;4953322;28;20546;-72
2022/09/14 06:41:11;;;;;;;25.50;23.90;;;21.10;99.90;;;;;;4953442;28;20457;-73
2022/09/14 06:43:39;;;;;;;26.33;24.27;;;21.20;99.90;;;;;;4953526;28;20719;-72
2022/09/14 06:46:07;;;;;;;24.23;22.97;;;21.30;99.90;;;;;;4953447;28;20493;-71
2022/09/14 06:48:36;;;;;;;25.10;23.40;;;21.30;99.90;;;;;;4953145;28;20899;-74
2022/09/14 06:51:13;;;;;;;27.90;26.03;;;21.30;99.90;;;;;;4953181;28;20536;-72
2022/09/14 06:53:40;;;;;;;27.57;25.67;;;21.30;99.90;;;;;;4953333;28;20456;-72
2022/09/14 06:56:07;;;;;;;30.03;28.10;;;21.40;99.90;;;;;;4953105;28;20559;-74
2022/09/14 06:58:35;;;;;;;27.97;25.77;;;21.30;99.90;;;;;;4953186;28;20488;-74
2022/09/14 07:01:02;;;;;;;24.00;22.50;;;21.30;99.90;;;;;;4953554;28;20488;-74
2022/09/14 07:03:30;;;;;;;24.93;23.30;;;21.40;99.90;;;;;;4953470;28;20539;-73
2022/09/14 07:06:02;;;;;;;23.47;22.03;;;21.20;99.90;;;;;;4952949;28;20475;-73
2022/09/14 07:08:30;;;;;;;25.50;23.90;;;21.30;99.90;;;;;;4953279;28;20460;-71
2022/09/14 07:10:57;;;;;;;24.47;23.07;;;21.30;99.90;;;;;;4953078;28;20453;-72
2022/09/14 07:13:24;;;;;;;22.97;21.50;;;21.40;99.90;;;;;;4952976;28;20448;-73
2022/09/14 07:15:51;;;;;;;22.83;21.23;;;21.50;99.90;;;;;;4952138;28;20812;-73
2022/09/14 07:18:18;;;;;;;21.57;20.40;;;21.30;99.90;;;;;;4952348;28;21013;-74
2022/09/14 07:20:45;;;;;;;21.73;20.70;;;21.90;99.90;;;;;;4952929;28;20452;-73
2022/09/14 07:23:12;;;;;;;21.13;20.03;;;22.10;99.90;;;;;;4952652;28;20496;-73
2022/09/14 07:25:41;;;;;;;19.53;18.53;;;22.40;99.90;;;;;;4952677;28;20559;-74
2022/09/14 07:28:07;;;;;;;20.27;18.60;;;22.90;99.90;;;;;;4952644;28;20777;-73
2022/09/14 07:30:36;;;;;;;19.20;18.27;;;23.10;99.90;;;;;;4952269;28;20461;-73
2022/09/14 07:33:03;;;;;;;17.90;17.10;;;23.10;99.90;;;;;;4952667;28;20882;-73
2022/09/14 07:35:30;;;;;;;18.37;17.47;;;23.10;99.90;;;;;;4952612;28;20452;-74
2022/09/14 07:37:57;;;;;;;19.03;18.03;;;23.10;99.90;;;;;;4952431;28;20544;-74
2022/09/14 07:40:23;;;;;;;19.23;18.13;;;23.20;99.90;;;;;;4952167;28;20531;-73
2022/09/14 07:42:52;;;;;;;16.70;15.97;;;23.40;99.90;;;;;;4952045;28;20480;-74
2022/09/14 07:45:19;;;;;;;17.40;16.60;;;23.80;99.90;;;;;;4952056;28;20834;-74
2022/09/14 07:47:46;;;;;;;17.87;17.10;;;24.30;99.90;;;;;;4952456;28;20490;-74
2022/09/14 07:50:12;;;;;;;17.60;16.80;;;24.60;99.90;;;;;;4951906;28;20496;-76
2022/09/14 07:52:40;;;;;;;16.60;15.90;;;;;;;;;;4952101;28;20475;-74
2022/09/14 07:55:08;;;;;;;17.20;16.30;;;25.30;99.90;;;;;;4951948;28;20468;-75
2022/09/14 07:57:34;;;;;;;17.30;16.50;;;25.70;99.90;;;;;;4951757;28;20484;-75
2022/09/14 08:00:04;;;;;;;16.60;15.90;;;26.10;99.90;;;;;;4952082;28;20495;-75
2022/09/14 08:02:31;;;;;;;16.37;15.63;;;27.00;99.90;;;;;;4952355;28;20452;-75
2022/09/14 08:04:58;;;;;;;15.97;15.13;;;26.80;99.90;;;;;;4952539;29;20543;-74
2022/09/14 08:07:25;;;;;;;15.77;15.17;;;26.80;99.90;;;;;;4952015;28;20551;-74
2022/09/14 08:09:52;;;;;;;16.57;15.77;;;27.10;99.90;;;;;;4952205;28;20458;-74
2022/09/14 08:12:19;;;;;;;17.60;16.50;;;27.20;99.90;;;;;;4952184;28;20460;-75
2022/09/14 08:14:46;;;;;;;16.43;15.73;;;27.20;99.90;;;;;;4952311;28;20460;-75
2022/09/14 08:17:14;;;;;;;16.70;16.00;;;27.20;99.90;;;;;;4951683;29;20461;-76
2022/09/14 08:19:40;;;;;;;17.30;16.33;;;27.00;99.90;;;;;;4951334;28;21005;-75
2022/09/14 08:22:07;;;;;;;16.40;15.60;;;27.10;99.90;;;;;;4951574;28;20943;-75
2022/09/14 08:24:34;;;;;;;16.00;15.40;;;27.20;99.90;;;;;;4951775;28;20457;-75
2022/09/14 08:27:00;;;;;;;16.10;15.43;;;27.20;99.90;;;;;;4951723;28;20467;-75
2022/09/14 08:29:27;;;;;;;16.40;15.70;;;27.20;99.90;;;;;;4951410;29;20811;-74
2022/09/14 08:31:54;;;;;;;15.47;14.97;;;;;;;;;;4951231;28;20455;-74
2022/09/14 08:34:22;;;;;;;16.70;16.10;;;27.20;99.90;;;;;;4951724;28;20461;-75
2022/09/14 08:36:49;;;;;;;16.30;15.50;;;27.30;99.90;;;;;;4951643;28;20448;-75
2022/09/14 08:39:17;;;;;;;16.30;15.60;;;27.50;99.90;;;;;;4951967;28;20856;-74
2022/09/14 08:41:51;;;;;;;16.87;16.17;;;27.80;99.90;;;;;;4951822;28;20479;-75
2022/09/14 08:44:21;;;;;;;17.00;16.03;;;27.40;99.90;;;;;;4951814;28;20570;-73
2022/09/14 08:46:53;;;;;;;18.00;17.03;;;27.40;99.90;;;;;;4951699;28;20456;-74
2022/09/14 08:49:30;;;;;;;16.20;15.17;;;27.20;99.90;;;;;;4951361;28;20565;-74
2022/09/14 08:51:57;;;;;;;16.93;16.13;;;27.00;99.90;;;;;;4951636;28;20475;-74
2022/09/14 08:54:24;;;;;;;16.03;15.30;;;26.80;99.90;;;;;;4951116;28;20448;-75
2022/09/14 08:56:58;;;;;;;16.57;15.67;;;27.20;99.90;;;;;;4951505;28;20449;-75
2022/09/14 08:59:42;;;;;;;15.57;14.93;;;28.10;99.90;;;;;;4951228;28;20500;-74
2022/09/14 09:02:28;;;;;;;17.07;16.20;;;28.50;99.90;;;;;;4951164;28;20488;-75
2022/09/14 09:05:03;;;;;;;16.60;15.80;;;29.00;99.90;;;;;;4949772;28;20460;-74
2022/09/14 09:07:37;;;;;;;16.60;15.70;;;29.50;99.90;;;;;;4943493;28;20455;-74
2022/09/14 09:10:06;;;;;;;15.77;14.97;;;29.60;99.90;;;;;;4951197;28;20471;-74
2022/09/14 09:12:37;;;;;;;16.70;15.80;;;30.30;99.90;;;;;;4951525;28;20862;-74
2022/09/14 09:15:14;;;;;;;15.87;15.27;;;30.80;99.70;;;;;;4951214;28;20488;-72
2022/09/14 09:17:45;;;;;;;15.70;15.00;;;31.30;99.60;;;;;;4951278;28;20942;-73
2022/09/14 09:20:17;;;;;;;16.63;15.83;;;31.70;98.50;;;;;;4951280;28;20495;-74
2022/09/14 09:22:50;;;;;;;17.07;16.17;;;32.00;97.70;;;;;;4951443;28;20453;-74
2022/09/14 09:25:22;;;;;;;15.93;15.17;;;32.70;95.90;;;;;;4951477;28;20957;-74
2022/09/14 09:27:49;;;;;;;16.10;15.30;;;33.40;94.20;;;;;;4951360;28;20511;-74
2022/09/14 09:30:16;;;;;;;16.70;16.00;;;33.20;93.60;;;;;;4951312;28;20935;-74
2022/09/14 09:32:43;;;;;;;15.50;14.90;;;33.60;93.40;;;;;;4951332;28;20555;-73
2022/09/14 09:35:16;;;;;;;15.37;14.53;;;33.50;92.30;;;;;;4951191;28;20452;-74
2022/09/14 09:37:43;;;;;;;16.43;15.60;;;33.50;92.40;;;;;;4951409;28;20457;-74
2022/09/14 09:40:16;;;;;;;15.90;15.00;;;33.30;92.80;;;;;;4952426;28;20546;-73
2022/09/14 09:43:07;;;;;;;16.10;15.40;;;33.20;93.30;;;;;;4954976;28;20492;-73
2022/09/14 09:45:50;;;;;;;15.87;14.97;;;32.60;92.80;;;;;;4954897;28;20444;-72
2022/09/14 09:48:19;;;;;;;15.47;14.77;;;31.00;99.90;;;;;;4952391;28;20472;-73
2022/09/14 09:50:57;;;;;;;14.73;14.23;;;30.90;95.60;;;;;;4954749;28;20479;-73
2022/09/14 09:53:24;;;;;;;14.90;14.30;;;31.20;95.40;;;;;;4954752;29;21218;-73
2022/09/14 09:55:51;;;;;;;14.70;14.03;;;31.10;95.60;;;;;;4954615;28;20526;-74
2022/09/14 09:58:30;;;;;;;15.67;14.90;;;31.60;94.70;;;;;;4954506;28;20457;-74
2022/09/14 10:00:58;;;;;;;16.10;15.50;;;32.50;93.50;;;;;;4954441;28;20448;-74
2022/09/14 10:03:29;;;;;;;15.43;14.93;;;33.70;91.60;;;;;;4954181;29;20523;-73
2022/09/14 10:06:08;;;;;;;16.77;15.73;;;34.50;90.50;;;;;;4954258;28;20507;-73
2022/09/14 10:08:41;;;;;;;16.67;15.97;;;35.00;89.70;;;;;;4954310;28;20452;-73
2022/09/14 10:11:30;;;;;;;16.00;15.50;;;34.50;91.10;;;;;;4954363;28;20452;-72
2022/09/14 10:13:57;;;;;;;15.40;14.70;;;;;;;;;;4954219;28;20437;-73
2022/09/14 10:16:28;;;;;;;16.27;15.60;;;32.50;91.50;;;;;;4953963;28;20456;-73
2022/09/14 10:18:56;;;;;;;16.03;15.43;;;33.50;93.20;;;;;;4954042;28;20495;-73
2022/09/14 10:21:25;;;;;;;16.37;15.77;;;33.80;92.50;;;;;;4954081;28;20483;-73
2022/09/14 10:24:03;;;;;;;16.10;15.50;;;33.70;90.90;;;;;;4954093;28;20484;-73
2022/09/14 10:26:36;;;;;;;16.30;15.63;;;33.70;90.70;;;;;;4954558;28;20456;-74
2022/09/14 10:29:35;;;;;;;17.23;16.17;;;32.40;88.90;;;;;;4954145;28;20448;-73
2022/09/14 10:32:11;;;;;;;16.30;15.50;;;33.80;88.20;;;;;;4953470;28;20474;-73
2022/09/14 10:34:38;;;;;;;14.93;14.33;;;34.20;91.10;;;;;;4953879;28;20463;-74
2022/09/14 10:37:18;;;;;;;15.97;15.13;;;33.60;91.90;;;;;;4953810;28;20861;-72
2022/09/14 10:39:51;;;;;;;16.50;15.70;;;33.20;91.30;;;;;;4954064;28;20506;-72
2022/09/14 10:42:28;;;;;;;16.07;15.47;;;33.40;91.50;;;;;;4954060;28;20457;-72
2022/09/14 10:45:16;;;;;;;14.10;13.50;;;32.90;91.60;;;;;;4953651;28;20448;-73
2022/09/14 10:48:01;;;;;;;15.20;14.50;;;32.80;90.20;;;;;;4953686;28;20456;-73
2022/09/14 10:50:41;;;;;;;15.87;15.17;;;33.00;91.30;;;;;;4953322;28;20495;-73
2022/09/14 10:53:22;;;;;;;15.10;14.40;;;33.10;90.40;;;;;;4952889;28;20469;-72
2022/09/14 10:56:00;;;;;;;15.67;15.07;;;32.50;91.60;;;;;;4951145;28;20456;-72
2022/09/14 10:58:43;;;;;;;17.20;16.33;;;31.60;99.90;;;;;;4953295;28;20704;-73
2022/09/14 11:01:26;;;;;;;15.97;15.17;;;32.20;93.10;;;;;;4953182;28;20559;-74
2022/09/14 11:04:05;;;;;;;16.30;15.40;;;31.50;92.80;;;;;;4953095;28;20464;-73
2022/09/14 11:06:42;;;;;;;15.90;15.23;;;31.90;93.00;;;;;;4953463;28;20478;-73
2022/09/14 11:09:20;;;;;;;15.17;14.40;;;31.80;92.30;;;;;;4953075;28;20452;-72
2022/09/14 11:11:58;;;;;;;14.33;13.83;;;31.50;93.20;;;;;;4953337;28;20460;-73
2022/09/14 11:14:38;;;;;;;16.70;15.87;;;31.60;92.50;;;;;;4953218;28;20467;-74
2022/09/14 11:17:33;;;;;;;17.00;16.07;;;32.40;92.60;;;;;;4953133;28;20775;-72
2022/09/14 11:20:08;;;;;;;15.67;15.07;;;33.00;90.00;;;;;;4953082;28;20942;-72
2022/09/14 11:22:42;;;;;;;17.20;16.40;;;34.30;86.70;;;;;;4953094;28;20456;-75
2022/09/14 11:25:15;;;;;;;15.93;15.33;;;35.70;84.80;;;;;;4952906;28;20451;-75
2022/09/14 11:27:45;;;;;;;16.67;16.03;;;36.10;90.60;;;;;;4953146;28;20452;-75
2022/09/14 11:30:16;;;;;;;16.90;16.17;;;36.50;89.10;;;;;;4953044;28;20453;-75
2022/09/14 11:32:47;;;;;;;17.80;16.90;;;36.70;89.90;;;;;;4952982;28;20817;-76
2022/09/14 11:35:18;;;;;;;16.80;15.97;;;37.40;85.40;;;;;;4953083;28;20456;-74
2022/09/14 11:37:50;;;;;;;16.30;15.60;;;35.40;88.20;;;;;;4953023;28;20503;-74
2022/09/14 11:40:23;;;;;;;16.47;15.80;;;36.40;89.30;;;;;;4952999;28;20488;-74
2022/09/14 11:42:56;;;;;;;15.83;15.13;;;33.30;90.10;;;;;;4952729;28;20488;-74
2022/09/14 11:45:29;;;;;;;16.20;15.50;;;33.50;91.80;;;;;;4952798;28;20726;-75
2022/09/14 11:48:08;;;;;;;17.00;16.20;;;33.70;91.10;;;;;;4952408;28;20464;-74
2022/09/14 11:50:37;;;;;;;16.83;15.90;;;33.80;90.40;;;;;;4952343;28;20848;-74
2022/09/14 11:53:11;;;;;;;16.03;15.27;;;34.10;90.50;;;;;;4952430;28;20511;-74
2022/09/14 11:55:44;;;;;;;15.73;15.10;;;33.90;90.40;;;;;;4952537;28;20467;-74
2022/09/14 11:58:18;;;;;;;14.40;13.90;;;33.70;89.00;;;;;;4952518;28;20533;-73
2022/09/14 12:01:24;;;;;;;15.60;15.00;;;34.10;91.00;;;;;;4952715;28;20484;-73
2022/09/14 12:04:08;;;;;;;15.70;14.80;;;32.10;86.30;;;;;;4951419;28;20488;-73
2022/09/14 12:06:53;;;;;;;15.37;14.67;;;31.70;92.10;;;;;;4949641;28;20726;-74
2022/09/14 12:09:52;;;;;;;16.20;15.50;;;32.00;92.70;;;;;;4952888;28;20547;-77
2022/09/14 12:12:39;;;;;;;15.40;14.70;;;30.90;93.40;;;;;;4954005;28;20453;-75
2022/09/14 12:15:34;;;;;;;16.07;15.47;;;30.50;91.70;;;;;;4953595;28;20460;-75
2022/09/14 12:18:22;;;;;;;14.60;13.90;;;30.60;91.40;;;;;;4950890;28;20465;-78
2022/09/14 12:20:51;;;;;;;15.10;14.10;;;31.10;94.70;;;;;;4952236;28;20496;-76
2022/09/14 12:23:31;;;;;;;15.60;14.90;;;30.70;95.10;;;;;;4952124;28;20487;-74
2022/09/14 12:26:14;;;;;;;16.30;15.20;;;30.30;94.20;;;;;;4952460;28;20457;-74
2022/09/14 12:28:47;;;;;;;15.03;14.43;;;30.50;96.50;;;;;;4952226;28;20456;-71
2022/09/14 12:31:58;;;;;;;15.73;14.63;;;29.90;96.80;;;;;;4950597;28;20460;-72
2022/09/14 12:34:26;;;;;;;16.20;15.20;;;29.70;96.60;;;;;;4946037;28;20449;-72
2022/09/14 12:37:00;;;;;;;14.73;14.00;;;29.60;97.60;;;;;;4951555;28;20452;-72
2022/09/14 12:39:29;;;;;;;15.13;14.53;;;29.10;98.80;;;;;;4951540;28;20470;-72
2022/09/14 12:42:26;;;;;;;18.43;17.53;;;28.70;99.90;;;;;;4951342;28;20461;-74
2022/09/14 12:44:54;;;;;;;18.00;17.30;;;28.40;99.90;;;;;;4951330;28;20460;-74
2022/09/14 12:47:57;;;;;;;17.37;16.67;;;27.30;99.90;;;;;;4951346;28;20457;-72
2022/09/14 12:50:28;;;;;;;15.17;14.47;;;26.00;99.90;;;;;;4951137;28;20488;-73
2022/09/14 12:53:20;;;;;;;15.60;14.90;;;26.50;99.90;;;;;;4951356;28;20457;-71
2022/09/14 12:56:03;;;;;;;21.43;20.43;;;25.40;99.90;;;;;;4951615;28;20499;-75
2022/09/14 12:59:01;;;;;;;21.47;20.33;;;25.30;99.90;;;;;;4951603;28;20515;-74
2022/09/14 13:01:36;;;;;;;21.13;20.20;;;24.30;99.90;;;;;;4949471;28;20492;-74
2022/09/14 13:04:04;;;;;;;24.90;23.77;;;23.60;99.90;;;;;;4951345;28;20456;-73
2022/09/14 13:06:40;;;;;;;28.67;27.57;;;23.20;99.90;;;;;;4951566;28;20457;-74
2022/09/14 13:09:20;;;;;;;30.60;29.20;;;22.80;99.90;;;;;;4951003;28;20494;-73
2022/09/14 13:11:49;;;;;;;31.63;30.23;;;22.60;99.90;;;;;;4951644;28;20551;-73
2022/09/14 13:14:18;;;;;;;32.77;31.00;;;22.90;99.90;;;;;;4951802;28;20460;-72
2022/09/14 13:16:50;;;;;;;31.37;29.80;;;22.20;99.90;;;;;;4955553;28;20456;-73
2022/09/14 13:19:22;;;;;;;35.17;33.47;;;22.40;99.90;;;;;;4955511;28;20544;-73
2022/09/14 13:21:50;;;;;;;35.90;34.00;;;22.00;99.90;;;;;;4955173;28;20509;-73
2022/09/14 13:24:25;;;;;;;36.37;34.47;;;21.90;99.90;;;;;;4955287;28;20497;-73
2022/09/14 13:26:53;;;;;;;35.43;33.73;;;21.80;99.90;;;;;;4953622;28;20464;-72
2022/09/14 13:29:21;;;;;;;33.77;32.17;;;21.90;99.90;;;;;;4938188;29;20947;-73
2022/09/14 13:31:49;;;;;;;34.00;32.40;;;21.70;99.90;;;;;;4954885;28;20555;-73
2022/09/14 13:34:21;;;;;;;35.13;33.63;;;21.70;99.90;;;;;;4954881;28;20826;-73
2022/09/14 13:36:49;;;;;;;35.00;33.40;;;21.40;99.90;;;;;;4955215;28;20479;-73
2022/09/14 13:39:24;;;;;;;36.00;34.20;;;21.40;99.90;;;;;;4954991;28;20452;-73
2022/09/14 13:41:51;;;;;;;36.10;34.40;;;21.60;99.90;;;;;;4954624;28;20483;-73
2022/09/14 13:44:18;;;;;;;36.40;34.60;;;21.60;99.90;;;;;;4954907;28;20452;-73
2022/09/14 13:46:45;;;;;;;34.60;33.00;;;21.60;99.90;;;;;;4954993;29;20475;-73
2022/09/14 13:49:14;;;;;;;35.20;33.70;;;21.90;99.90;;;;;;4954733;28;20480;-73
2022/09/14 13:51:40;;;;;;;34.60;33.20;;;22.10;99.90;;;;;;4954377;29;20484;-73
2022/09/14 13:54:26;;;;;;;35.80;34.00;;;21.80;99.90;;;;;;4954413;28;20467;-73
2022/09/14 13:57:11;;;;;;;32.80;31.10;;;21.70;99.90;;;;;;4954438;28;20990;-73
2022/09/14 14:00:17;;;;;;;33.57;32.07;;;21.70;99.90;;;;;;4954388;28;20851;-72
2022/09/14 14:02:46;;;;;;;32.07;30.47;;;21.60;99.90;;;;;;4954436;28;20460;-74
2022/09/14 14:05:29;;;;;;;32.07;30.70;;;21.60;99.90;;;;;;4954487;28;20448;-73
2022/09/14 14:07:57;;;;;;;29.50;28.10;;;21.60;99.90;;;;;;4954269;28;20460;-73
2022/09/14 14:10:28;;;;;;;27.83;26.70;;;21.60;99.90;;;;;;4954075;28;20451;-73
2022/09/14 14:12:56;;;;;;;25.60;24.50;;;21.60;99.90;;;;;;4947544;28;20870;-72
2022/09/14 14:15:41;;;;;;;22.87;21.87;;;21.60;99.90;;;;;;4945238;28;21175;-72
2022/09/14 14:18:30;;;;;;;21.77;20.63;;;21.70;99.90;;;;;;4947194;28;20444;-72
2022/09/14 14:21:16;;;;;;;19.37;18.53;;;21.80;99.90;;;;;;4943694;28;20896;-74
2022/09/14 14:23:43;;;;;;;18.20;17.40;;;21.90;99.90;;;;;;4945817;28;20452;-73
2022/09/14 14:26:14;;;;;;;18.27;17.27;;;22.10;99.90;;;;;;4941036;28;20541;-72
2022/09/14 14:28:42;;;;;;;18.00;17.10;;;22.30;99.90;;;;;;4934919;29;20871;-75
2022/09/14 14:31:14;;;;;;;17.97;17.07;;;22.50;99.90;;;;;;4934705;29;20477;-74
2022/09/14 14:33:46;;;;;;;18.30;17.50;;;22.60;99.90;;;;;;4934735;29;20460;-73
2022/09/14 14:36:14;;;;;;;16.77;15.97;;;22.70;99.90;;;;;;4934848;29;20500;-75
2022/09/14 14:38:43;;;;;;;16.67;15.83;;;22.90;99.90;;;;;;4934884;29;20457;-75
2022/09/14 14:41:14;;;;;;;16.73;16.13;;;22.50;99.90;;;;;;4934321;29;20495;-73
2022/09/14 14:43:41;;;;;;;17.70;17.00;;;22.80;99.90;;;;;;4934666;29;20489;-74
2022/09/14 14:46:08;;;;;;;17.33;16.43;;;22.40;99.90;;;;;;4934349;29;20457;-75
2022/09/14 14:48:35;;;;;;;17.37;16.77;;;23.30;99.90;;;;;;4934514;29;20484;-75
2022/09/14 14:51:01;;;;;;;17.37;16.67;;;22.70;99.90;;;;;;4934332;29;20477;-75
2022/09/14 14:53:29;;;;;;;17.20;16.60;;;22.90;99.90;;;;;;4934644;29;20974;-74
2022/09/14 14:55:56;;;;;;;17.03;16.43;;;22.90;99.90;;;;;;4934390;29;20480;-75
2022/09/14 14:58:24;;;;;;;17.27;16.57;;;22.60;99.90;;;;;;4932684;29;20458;-75
2022/09/14 15:00:51;;;;;;;17.07;16.37;;;21.90;99.90;;;;;;4934574;29;20492;-75
2022/09/14 15:03:18;;;;;;;17.80;17.20;;;22.90;99.90;;;;;;4934692;29;20878;-76
2022/09/14 15:05:46;;;;;;;21.60;20.80;;;22.20;99.90;;;;;;4934834;29;20517;-75
2022/09/14 15:08:14;;;;;;;23.90;22.90;;;22.10;99.90;;;;;;4934711;29;20469;-74
2022/09/14 15:10:42;;;;;;;29.40;28.00;;;21.80;99.90;;;;;;4934604;29;20453;-75
2022/09/14 15:13:10;;;;;;;34.17;32.63;;;21.60;99.90;;;;;;4934616;29;20456;-72
2022/09/14 15:15:40;;;;;;;35.80;34.20;;;21.30;99.90;;;;;;4934543;29;20887;-72
2022/09/14 15:18:07;;;;;;;34.63;33.03;;;21.30;99.90;;;;;;4934234;29;20481;-71
2022/09/14 15:20:34;;;;;;;35.30;33.70;;;21.20;99.90;;;;;;4934448;29;20498;-73
2022/09/14 15:23:00;;;;;;;34.17;32.67;;;21.50;99.90;;;;;;4934570;29;20460;-72
2022/09/14 15:25:27;;;;;;;36.40;34.80;;;20.90;99.90;;;;;;4934421;29;20461;-73
2022/09/14 15:27:55;;;;;;;34.60;33.20;;;20.70;99.90;;;;;;4934233;29;20998;-73
2022/09/14 15:30:22;;;;;;;36.10;34.63;;;20.80;99.90;;;;;;4934151;29;20650;-73
2022/09/14 15:32:48;;;;;;;33.77;32.37;;;20.60;99.90;;;;;;4934296;29;20454;-72
2022/09/14 15:35:16;;;;;;;34.20;32.70;;;20.50;99.90;;;;;;4934415;29;20461;-71
2022/09/14 15:37:42;;;;;;;33.70;32.30;;;20.50;99.90;;;;;;4933225;29;20457;-74
2022/09/14 15:40:10;;;;;;;32.07;30.77;;;20.70;99.90;;;;;;4933966;29;21279;-74
2022/09/14 15:42:37;;;;;;;30.27;29.07;;;;;;;;;;4933216;29;20505;-74
2022/09/14 15:45:07;;;;;;;27.00;25.90;;;20.70;99.90;;;;;;4933699;29;20457;-72
2022/09/14 15:47:34;;;;;;;24.20;23.30;;;20.80;99.90;;;;;;4933918;29;20469;-72
2022/09/14 15:50:01;;;;;;;19.30;18.70;;;20.80;99.90;;;;;;4933866;29;20489;-74
2022/09/14 15:52:27;;;;;;;18.33;17.60;;;21.40;99.90;;;;;;4933910;29;20454;-72
2022/09/14 15:54:54;;;;;;;19.57;18.87;;;20.80;99.90;;;;;;4933822;29;20958;-72
2022/09/14 15:57:21;;;;;;;17.17;16.57;;;21.00;99.90;;;;;;4933586;29;20542;-73
2022/09/14 15:59:48;;;;;;;16.20;15.57;;;;;;;;;;4933905;29;20453;-72
2022/09/14 16:02:18;;;;;;;14.53;14.03;;;20.90;99.90;;;;;;4933745;29;20497;-73
2022/09/14 16:04:45;;;;;;;14.37;13.87;;;21.00;99.90;;;;;;4933710;29;20453;-73
2022/09/14 16:07:12;;;;;;;15.17;14.67;;;21.20;99.90;;;;;;4933704;29;20453;-72
2022/09/14 16:09:40;;;;;;;14.77;14.13;;;21.60;99.90;;;;;;4933452;29;20579;-72
2022/09/14 16:12:07;;;;;;;14.53;14.03;;;21.40;99.90;;;;;;4933330;29;20608;-72
2022/09/14 16:14:34;;;;;;;15.20;14.70;;;21.30;99.90;;;;;;4933402;29;20457;-71
2022/09/14 16:17:01;;;;;;;15.30;14.67;;;21.60;99.90;;;;;;4933534;29;20454;-72
2022/09/14 16:19:29;;;;;;;15.00;14.43;;;21.20;99.90;;;;;;4933248;29;20461;-73
2022/09/14 16:21:56;;;;;;;15.20;14.60;;;21.10;99.90;;;;;;4933099;29;20496;-73
2022/09/14 16:24:25;;;;;;;16.00;15.40;;;21.00;99.90;;;;;;4933177;29;20488;-73
2022/09/14 16:26:52;;;;;;;14.30;13.80;;;21.10;99.90;;;;;;4933166;29;20461;-73
2022/09/14 16:29:21;;;;;;;14.70;14.10;;;21.00;99.90;;;;;;4933085;29;20947;-74
2022/09/14 16:31:48;;;;;;;14.70;14.10;;;21.30;99.90;;;;;;4933155;29;20974;-73
2022/09/14 16:34:18;;;;;;;16.17;15.23;;;21.00;99.90;;;;;;4933280;29;20449;-73
2022/09/14 16:36:47;;;;;;;15.20;14.50;;;21.00;99.90;;;;;;4933005;29;21046;-74
2022/09/14 16:39:17;;;;;;;16.50;15.80;;;21.10;99.90;;;;;;4933171;29;20453;-74
2022/09/14 16:41:44;;;;;;;15.27;14.57;;;21.20;99.90;;;;;;4933071;29;20515;-73
2022/09/14 16:44:14;;;;;;;15.40;14.80;;;21.20;99.90;;;;;;4932851;29;20457;-73
2022/09/14 16:46:41;;;;;;;16.00;15.30;;;21.20;99.90;;;;;;4932853;29;20462;-74
2022/09/14 16:49:27;;;;;;;13.80;13.30;;;21.20;99.90;;;;;;4932307;29;20469;-74
2022/09/14 16:51:55;;;;;;;15.00;14.40;;;21.10;99.90;;;;;;4932485;29;20684;-75
2022/09/14 16:54:24;;;;;;;14.70;14.10;;;21.00;99.90;;;;;;4932546;29;20707;-75
2022/09/14 16:56:51;;;;;;;14.70;14.00;;;21.20;99.90;;;;;;4932561;29;21030;-75
2022/09/14 16:59:19;;;;;;;13.47;13.00;;;21.60;99.90;;;;;;4937837;29;20479;-74
2022/09/14 17:01:47;;;;;;;14.37;13.87;;;21.00;99.90;;;;;;4942238;28;20472;-74
2022/09/14 17:04:15;;;;;;;14.37;13.70;;;21.20;99.90;;;;;;4939780;28;20457;-73
2022/09/14 17:06:44;;;;;;;14.63;14.03;;;21.00;99.90;;;;;;4940708;29;20467;-74
2022/09/14 17:09:14;;;;;;;14.70;14.20;;;21.10;99.90;;;;;;4944691;28;20543;-75
2022/09/14 17:11:42;;;;;;;15.20;14.60;;;21.10;99.90;;;;;;4941900;28;20874;-75
2022/09/14 17:14:12;;;;;;;15.17;14.67;;;20.90;99.90;;;;;;4941927;28;20540;-74
2022/09/14 17:16:39;;;;;;;15.03;14.43;;;20.60;99.90;;;;;;4940562;28;20453;-73
2022/09/14 17:19:06;;;;;;;15.80;15.20;;;20.80;99.90;;;;;;4948132;28;20444;-75
2022/09/14 17:21:34;;;;;;;15.57;14.77;;;20.80;99.90;;;;;;4944738;29;20994;-75
2022/09/14 17:24:05;;;;;;;15.67;15.17;;;20.20;99.90;;;;;;4940507;28;20452;-74
2022/09/14 17:26:34;;;;;;;15.70;14.70;;;20.50;99.90;;;;;;4947948;28;20453;-73
2022/09/14 17:29:10;;;;;;;15.73;15.13;;;20.80;99.90;;;;;;4944306;28;20439;-73
2022/09/14 17:31:39;;;;;;;14.80;14.20;;;20.70;99.90;;;;;;4945180;28;21101;-75
2022/09/14 17:34:08;;;;;;;15.73;15.03;;;20.60;99.90;;;;;;4950951;28;20444;-75
2022/09/14 17:36:35;;;;;;;16.67;15.77;;;20.60;99.90;;;;;;4951075;28;20449;-75
2022/09/14 17:39:03;;;;;;;16.50;15.80;;;20.50;99.90;;;;;;4951355;28;20815;-75